createdAt,value
2018-12-17T00:00:00.206Z,1019.98
2018-12-17T00:00:41.002Z,1019.97
2018-12-17T00:01:21.834Z,1019.97
2018-12-17T00:02:02.611Z,1020.04
2018-12-17T00:02:43.406Z,1020.02
2018-12-17T00:03:24.166Z,1020
2018-12-17T00:04:04.892Z,1019.98
2018-12-17T00:04:45.660Z,1019.98
2018-12-17T00:05:26.588Z,1019.98
2018-12-17T00:06:07.366Z,1019.98
2018-12-17T00:06:48.155Z,1019.96
2018-12-17T00:07:28.924Z,1019.96
2018-12-17T00:08:09.669Z,1019.95
2018-12-17T00:08:50.493Z,1020
2018-12-17T00:09:31.258Z,1020
2018-12-17T00:10:11.973Z,1020.04
2018-12-17T00:10:52.692Z,1020.01
2018-12-17T00:11:33.504Z,1020.01
2018-12-17T00:12:16.589Z,1020.06
2018-12-17T00:12:55.072Z,1020.09
2018-12-17T00:13:35.870Z,1020.15
2018-12-17T00:14:16.591Z,1020.15
2018-12-17T00:14:57.301Z,1020.17
2018-12-17T00:15:38.059Z,1020.19
2018-12-17T00:16:18.886Z,1020.16
2018-12-17T00:16:59.653Z,1020.18
2018-12-17T00:17:40.394Z,1020.13
2018-12-17T00:18:21.236Z,1020.06
2018-12-17T00:19:02.058Z,1020.05
2018-12-17T00:19:42.895Z,1020.03
2018-12-17T00:20:23.575Z,1019.94
2018-12-17T00:21:04.328Z,1019.95
2018-12-17T00:21:45.066Z,1019.95
2018-12-17T00:22:25.840Z,1019.93
2018-12-17T00:23:06.643Z,1019.97
2018-12-17T00:23:47.409Z,1019.98
2018-12-17T00:24:28.174Z,1019.98
2018-12-17T00:25:08.863Z,1020.02
2018-12-17T00:25:49.653Z,1020.02
2018-12-17T00:26:30.446Z,1020.04
2018-12-17T00:27:11.156Z,1020.05
2018-12-17T00:27:51.886Z,1020.01
2018-12-17T00:28:32.598Z,1020.01
2018-12-17T00:29:13.379Z,1019.98
2018-12-17T00:29:54.166Z,1019.92
2018-12-17T00:30:34.956Z,1019.91
2018-12-17T00:31:15.745Z,1019.9
2018-12-17T00:31:56.572Z,1019.88
2018-12-17T00:32:37.436Z,1019.92
2018-12-17T00:33:18.185Z,1019.85
2018-12-17T00:33:58.892Z,1019.88
2018-12-17T00:34:39.705Z,1019.9
2018-12-17T00:35:20.437Z,1019.88
2018-12-17T00:36:01.144Z,1019.9
2018-12-17T00:36:41.829Z,1019.9
2018-12-17T00:37:22.622Z,1019.89
2018-12-17T00:38:03.467Z,1019.88
2018-12-17T00:38:44.279Z,1019.89
2018-12-17T00:39:25.079Z,1019.88
2018-12-17T00:40:05.790Z,1019.88
2018-12-17T00:40:46.481Z,1019.84
2018-12-17T00:41:27.206Z,1019.87
2018-12-17T00:42:08.058Z,1019.81
2018-12-17T00:42:48.859Z,1019.84
2018-12-17T00:43:29.571Z,1019.79
2018-12-17T00:44:10.316Z,1019.82
2018-12-17T00:44:51.124Z,1019.87
2018-12-17T00:45:31.890Z,1019.89
2018-12-17T00:46:12.675Z,1019.88
2018-12-17T00:46:53.440Z,1019.94
2018-12-17T00:47:34.230Z,1019.91
2018-12-17T00:48:14.919Z,1019.96
2018-12-17T00:48:55.678Z,1020
2018-12-17T00:49:36.611Z,1019.96
2018-12-17T00:50:17.378Z,1019.96
2018-12-17T00:50:58.102Z,1019.98
2018-12-17T00:51:38.879Z,1020.02
2018-12-17T00:52:19.661Z,1020.07
2018-12-17T00:53:00.359Z,1020.08
2018-12-17T00:53:41.088Z,1020.12
2018-12-17T00:54:21.858Z,1020.1
2018-12-17T00:55:02.714Z,1020.12
2018-12-17T00:55:43.456Z,1020.12
2018-12-17T00:56:24.232Z,1020.08
2018-12-17T00:57:04.977Z,1020.07
2018-12-17T00:57:45.701Z,1020.06
2018-12-17T00:58:26.417Z,1019.99
2018-12-17T00:59:07.179Z,1020.02
2018-12-17T00:59:47.999Z,1020.08
2018-12-17T01:00:28.800Z,1020.07
2018-12-17T01:01:09.517Z,1020.06
2018-12-17T01:01:50.302Z,1020.11
2018-12-17T01:02:31.124Z,1020.1
2018-12-17T01:03:11.949Z,1020.09
2018-12-17T01:03:52.628Z,1020.11
2018-12-17T01:04:33.416Z,1020.13
2018-12-17T01:05:14.272Z,1020.14
2018-12-17T01:05:55.034Z,1020.13
2018-12-17T01:06:35.745Z,1020.13
2018-12-17T01:07:16.489Z,1020.14
2018-12-17T01:07:57.277Z,1020.07
2018-12-17T01:08:38.056Z,1020.12
2018-12-17T01:09:18.793Z,1020.13
2018-12-17T01:09:59.539Z,1020.13
2018-12-17T01:10:40.407Z,1020.12
2018-12-17T01:11:21.325Z,1020.12
2018-12-17T01:12:02.050Z,1020.07
2018-12-17T01:12:42.770Z,1020.08
2018-12-17T01:13:23.461Z,1020.09
2018-12-17T01:14:04.175Z,1020.15
2018-12-17T01:14:45.008Z,1020.18
2018-12-17T01:15:25.780Z,1020.26
2018-12-17T01:16:06.678Z,1020.28
2018-12-17T01:16:47.350Z,1020.27
2018-12-17T01:17:28.080Z,1020.31
2018-12-17T01:18:08.865Z,1020.27
2018-12-17T01:18:49.618Z,1020.28
2018-12-17T01:19:30.366Z,1020.25
2018-12-17T01:20:11.098Z,1020.26
2018-12-17T01:20:51.810Z,1020.19
2018-12-17T01:21:32.612Z,1020.17
2018-12-17T01:22:13.447Z,1020.22
2018-12-17T01:22:54.189Z,1020.29
2018-12-17T01:23:34.903Z,1020.29
2018-12-17T01:24:16.417Z,1020.3
2018-12-17T01:24:57.096Z,1020.27
2018-12-17T01:25:37.913Z,1020.24
2018-12-17T01:26:18.629Z,1020.2
2018-12-17T01:26:59.410Z,1020.22
2018-12-17T01:27:40.214Z,1020.17
2018-12-17T01:28:22.223Z,1020.16
2018-12-17T01:29:01.872Z,1020.19
2018-12-17T01:29:42.601Z,1020.15
2018-12-17T01:30:23.343Z,1020.08
2018-12-17T01:31:04.079Z,1020.06
2018-12-17T01:31:44.883Z,1020.08
2018-12-17T01:32:25.670Z,1020.07
2018-12-17T01:33:06.529Z,1020.09
2018-12-17T01:33:47.274Z,1020.13
2018-12-17T01:34:28.009Z,1020.17
2018-12-17T01:35:08.827Z,1020.22
2018-12-17T01:35:49.596Z,1020.22
2018-12-17T01:36:30.323Z,1020.22
2018-12-17T01:37:11.030Z,1020.27
2018-12-17T01:37:51.786Z,1020.31
2018-12-17T01:38:32.585Z,1020.33
2018-12-17T01:39:13.364Z,1020.38
2018-12-17T01:39:54.115Z,1020.36
2018-12-17T01:40:34.852Z,1020.32
2018-12-17T01:41:15.626Z,1020.34
2018-12-17T01:41:56.406Z,1020.27
2018-12-17T01:42:37.170Z,1020.29
2018-12-17T01:43:17.946Z,1020.3
2018-12-17T01:43:58.774Z,1020.31
2018-12-17T01:44:39.508Z,1020.31
2018-12-17T01:45:20.200Z,1020.33
2018-12-17T01:46:00.914Z,1020.34
2018-12-17T01:46:41.592Z,1020.31
2018-12-17T01:47:22.383Z,1020.33
2018-12-17T01:48:03.187Z,1020.32
2018-12-17T01:48:43.999Z,1020.33
2018-12-17T01:49:24.744Z,1020.35
2018-12-17T01:50:05.506Z,1020.39
2018-12-17T01:50:46.268Z,1020.44
2018-12-17T01:51:27.053Z,1020.47
2018-12-17T01:52:07.837Z,1020.48
2018-12-17T01:52:48.572Z,1020.47
2018-12-17T01:53:29.341Z,1020.49
2018-12-17T01:54:10.171Z,1020.5
2018-12-17T01:54:50.949Z,1020.49
2018-12-17T01:55:31.729Z,1020.5
2018-12-17T01:56:12.471Z,1020.52
2018-12-17T01:56:53.290Z,1020.55
2018-12-17T01:57:34.057Z,1020.55
2018-12-17T01:58:14.770Z,1020.65
2018-12-17T01:58:55.483Z,1020.64
2018-12-17T01:59:36.195Z,1020.68
2018-12-17T02:00:17.033Z,1020.7
2018-12-17T02:00:57.853Z,1020.78
2018-12-17T02:01:38.608Z,1020.82
2018-12-17T02:02:19.379Z,1020.82
2018-12-17T02:03:00.164Z,1020.81
2018-12-17T02:03:40.989Z,1020.8
2018-12-17T02:04:21.778Z,1020.78
2018-12-17T02:05:02.528Z,1020.76
2018-12-17T02:05:43.249Z,1020.75
2018-12-17T02:06:24.034Z,1020.73
2018-12-17T02:07:04.814Z,1020.71
2018-12-17T02:07:45.620Z,1020.7
2018-12-17T02:08:26.367Z,1020.72
2018-12-17T02:09:07.085Z,1020.71
2018-12-17T02:09:47.892Z,1020.79
2018-12-17T02:10:28.658Z,1020.78
2018-12-17T02:11:09.425Z,1020.76
2018-12-17T02:11:50.117Z,1020.74
2018-12-17T02:12:30.906Z,1020.74
2018-12-17T02:13:11.711Z,1020.75
2018-12-17T02:13:52.547Z,1020.76
2018-12-17T02:14:33.218Z,1020.79
2018-12-17T02:15:14.003Z,1020.83
2018-12-17T02:15:54.780Z,1020.81
2018-12-17T02:16:35.600Z,1020.87
2018-12-17T02:17:16.358Z,1020.9
2018-12-17T02:17:57.104Z,1020.88
2018-12-17T02:18:37.903Z,1020.84
2018-12-17T02:19:18.660Z,1020.84
2018-12-17T02:19:59.378Z,1020.85
2018-12-17T02:20:40.063Z,1020.87
2018-12-17T02:21:20.779Z,1020.97
2018-12-17T02:22:01.600Z,1021
2018-12-17T02:22:42.382Z,1021.09
2018-12-17T02:23:23.149Z,1021.12
2018-12-17T02:24:03.943Z,1021.16
2018-12-17T02:24:44.671Z,1021.19
2018-12-17T02:25:25.379Z,1021.21
2018-12-17T02:26:06.189Z,1021.25
2018-12-17T02:26:46.940Z,1021.24
2018-12-17T02:27:27.671Z,1021.28
2018-12-17T02:28:08.461Z,1021.26
2018-12-17T02:28:49.234Z,1021.25
2018-12-17T02:29:30.029Z,1021.24
2018-12-17T02:30:10.800Z,1021.23
2018-12-17T02:30:51.536Z,1021.25
2018-12-17T02:31:32.270Z,1021.25
2018-12-17T02:32:13.014Z,1021.28
2018-12-17T02:32:53.828Z,1021.25
2018-12-17T02:33:34.625Z,1021.27
2018-12-17T02:34:15.378Z,1021.3
2018-12-17T02:34:56.146Z,1021.29
2018-12-17T02:35:36.913Z,1021.33
2018-12-17T02:36:17.731Z,1021.38
2018-12-17T02:36:58.483Z,1021.38
2018-12-17T02:37:39.201Z,1021.4
2018-12-17T02:38:19.927Z,1021.39
2018-12-17T02:39:00.686Z,1021.39
2018-12-17T02:39:41.460Z,1021.42
2018-12-17T02:40:22.275Z,1021.39
2018-12-17T02:41:03.089Z,1021.39
2018-12-17T02:41:43.874Z,1021.44
2018-12-17T02:42:24.595Z,1021.45
2018-12-17T02:43:05.329Z,1021.45
2018-12-17T02:43:46.172Z,1021.47
2018-12-17T02:44:26.916Z,1021.49
2018-12-17T02:45:07.642Z,1021.46
2018-12-17T02:45:48.487Z,1021.46
2018-12-17T02:46:29.313Z,1021.48
2018-12-17T02:47:10.136Z,1021.49
2018-12-17T02:47:50.919Z,1021.51
2018-12-17T02:48:31.674Z,1021.51
2018-12-17T02:49:12.474Z,1021.54
2018-12-17T02:49:53.260Z,1021.51
2018-12-17T02:50:33.963Z,1021.5
2018-12-17T02:51:14.715Z,1021.53
2018-12-17T02:51:55.410Z,1021.46
2018-12-17T02:52:36.226Z,1021.46
2018-12-17T02:53:16.980Z,1021.5
2018-12-17T02:53:57.736Z,1021.49
2018-12-17T02:54:38.520Z,1021.48
2018-12-17T02:55:19.367Z,1021.48
2018-12-17T02:56:00.163Z,1021.43
2018-12-17T02:56:40.883Z,1021.45
2018-12-17T02:57:21.718Z,1021.42
2018-12-17T02:58:02.488Z,1021.4
2018-12-17T02:58:44.040Z,1021.42
2018-12-17T02:59:24.013Z,1021.4
2018-12-17T03:00:04.838Z,1021.39
2018-12-17T03:00:45.632Z,1021.44
2018-12-17T03:01:26.336Z,1021.42
2018-12-17T03:02:07.133Z,1021.39
2018-12-17T03:02:47.937Z,1021.39
2018-12-17T03:03:28.648Z,1021.4
2018-12-17T03:04:09.376Z,1021.39
2018-12-17T03:04:50.095Z,1021.41
2018-12-17T03:05:31.006Z,1021.45
2018-12-17T03:06:11.888Z,1021.46
2018-12-17T03:06:52.624Z,1021.5
2018-12-17T03:07:33.391Z,1021.51
2018-12-17T03:08:14.081Z,1021.56
2018-12-17T03:08:54.816Z,1021.6
2018-12-17T03:09:35.550Z,1021.62
2018-12-17T03:10:16.377Z,1021.66
2018-12-17T03:10:57.156Z,1021.66
2018-12-17T03:11:37.872Z,1021.67
2018-12-17T03:12:18.605Z,1021.68
2018-12-17T03:12:59.392Z,1021.65
2018-12-17T03:13:40.200Z,1021.68
2018-12-17T03:14:21.012Z,1021.69
2018-12-17T03:15:01.753Z,1021.68
2018-12-17T03:15:42.505Z,1021.7
2018-12-17T03:16:23.326Z,1021.68
2018-12-17T03:17:04.135Z,1021.67
2018-12-17T03:17:44.905Z,1021.66
2018-12-17T03:18:25.690Z,1021.64
2018-12-17T03:19:06.426Z,1021.58
2018-12-17T03:19:47.251Z,1021.58
2018-12-17T03:20:28.042Z,1021.55
2018-12-17T03:21:08.757Z,1021.54
2018-12-17T03:21:49.533Z,1021.5
2018-12-17T03:22:30.286Z,1021.45
2018-12-17T03:23:11.058Z,1021.44
2018-12-17T03:23:51.804Z,1021.38
2018-12-17T03:24:32.561Z,1021.41
2018-12-17T03:25:13.349Z,1021.43
2018-12-17T03:25:54.181Z,1021.43
2018-12-17T03:26:35.094Z,1021.45
2018-12-17T03:27:15.852Z,1021.47
2018-12-17T03:27:56.588Z,1021.51
2018-12-17T03:28:37.402Z,1021.58
2018-12-17T03:29:18.181Z,1021.59
2018-12-17T03:29:58.925Z,1021.6
2018-12-17T03:30:39.654Z,1021.63
2018-12-17T03:31:20.354Z,1021.63
2018-12-17T03:32:01.132Z,1021.64
2018-12-17T03:32:41.957Z,1021.61
2018-12-17T03:33:22.743Z,1021.63
2018-12-17T03:34:03.447Z,1021.63
2018-12-17T03:34:44.197Z,1021.62
2018-12-17T03:35:24.950Z,1021.58
2018-12-17T03:36:05.740Z,1021.62
2018-12-17T03:36:46.597Z,1021.61
2018-12-17T03:37:27.407Z,1021.59
2018-12-17T03:38:08.174Z,1021.59
2018-12-17T03:38:48.965Z,1021.59
2018-12-17T03:39:29.786Z,1021.59
2018-12-17T03:40:10.528Z,1021.59
2018-12-17T03:40:51.292Z,1021.54
2018-12-17T03:41:31.919Z,1021.55
2018-12-17T03:42:12.756Z,1021.55
2018-12-17T03:42:53.568Z,1021.55
2018-12-17T03:43:34.386Z,1021.56
2018-12-17T03:44:15.141Z,1021.56
2018-12-17T03:44:55.852Z,1021.6
2018-12-17T03:45:36.625Z,1021.57
2018-12-17T03:46:17.543Z,1021.57
2018-12-17T03:46:58.250Z,1021.57
2018-12-17T03:47:39.020Z,1021.56
2018-12-17T03:48:19.775Z,1021.55
2018-12-17T03:49:00.536Z,1021.54
2018-12-17T03:49:41.389Z,1021.57
2018-12-17T03:50:22.176Z,1021.56
2018-12-17T03:51:03.001Z,1021.61
2018-12-17T03:51:43.751Z,1021.62
2018-12-17T03:52:24.520Z,1021.56
2018-12-17T03:53:05.275Z,1021.54
2018-12-17T03:53:46.134Z,1021.59
2018-12-17T03:54:26.886Z,1021.57
2018-12-17T03:55:07.677Z,1021.57
2018-12-17T03:55:48.486Z,1021.57
2018-12-17T03:56:29.303Z,1021.57
2018-12-17T03:57:10.149Z,1021.56
2018-12-17T03:57:50.854Z,1021.57
2018-12-17T03:58:31.600Z,1021.62
2018-12-17T03:59:12.438Z,1021.65
2018-12-17T03:59:53.225Z,1021.72
2018-12-17T04:00:33.952Z,1021.72
2018-12-17T04:01:14.632Z,1021.73
2018-12-17T04:01:55.394Z,1021.77
2018-12-17T04:02:36.228Z,1021.77
2018-12-17T04:03:16.927Z,1021.83
2018-12-17T04:03:57.724Z,1021.8
2018-12-17T04:04:38.538Z,1021.87
2018-12-17T04:05:19.385Z,1021.88
2018-12-17T04:06:00.181Z,1021.95
2018-12-17T04:06:40.935Z,1021.94
2018-12-17T04:07:21.780Z,1021.92
2018-12-17T04:08:02.677Z,1021.98
2018-12-17T04:08:43.443Z,1021.98
2018-12-17T04:09:24.257Z,1021.95
2018-12-17T04:10:05.027Z,1021.96
2018-12-17T04:10:45.788Z,1021.97
2018-12-17T04:11:26.533Z,1021.96
2018-12-17T04:12:07.379Z,1021.99
2018-12-17T04:12:48.203Z,1022.05
2018-12-17T04:13:28.940Z,1022.02
2018-12-17T04:14:09.693Z,1022.02
2018-12-17T04:14:50.449Z,1021.96
2018-12-17T04:15:31.237Z,1021.94
2018-12-17T04:16:12.121Z,1021.92
2018-12-17T04:16:52.878Z,1021.95
2018-12-17T04:17:33.681Z,1021.91
2018-12-17T04:18:14.473Z,1021.94
2018-12-17T04:18:55.379Z,1021.95
2018-12-17T04:19:36.074Z,1021.94
2018-12-17T04:20:16.818Z,1021.95
2018-12-17T04:20:57.612Z,1021.96
2018-12-17T04:21:38.395Z,1021.97
2018-12-17T04:22:19.108Z,1021.94
2018-12-17T04:22:59.814Z,1021.91
2018-12-17T04:23:40.606Z,1021.93
2018-12-17T04:24:21.478Z,1021.89
2018-12-17T04:25:02.305Z,1021.93
2018-12-17T04:25:43.051Z,1021.94
2018-12-17T04:26:23.778Z,1021.95
2018-12-17T04:27:04.469Z,1021.96
2018-12-17T04:27:45.212Z,1021.98
2018-12-17T04:28:26.018Z,1021.97
2018-12-17T04:29:07.288Z,1021.99
2018-12-17T04:29:47.697Z,1021.96
2018-12-17T04:30:28.512Z,1021.98
2018-12-17T04:31:09.322Z,1022.01
2018-12-17T04:31:50.136Z,1022.01
2018-12-17T04:32:30.901Z,1022.01
2018-12-17T04:33:11.640Z,1022.05
2018-12-17T04:33:52.464Z,1022.02
2018-12-17T04:34:33.210Z,1022.03
2018-12-17T04:35:13.899Z,1022.04
2018-12-17T04:35:54.678Z,1022.09
2018-12-17T04:36:35.423Z,1022.07
2018-12-17T04:37:16.192Z,1022.17
2018-12-17T04:37:56.960Z,1022.13
2018-12-17T04:38:37.689Z,1022.22
2018-12-17T04:39:18.524Z,1022.28
2018-12-17T04:39:59.285Z,1022.3
2018-12-17T04:40:40.094Z,1022.32
2018-12-17T04:41:20.825Z,1022.31
2018-12-17T04:42:01.571Z,1022.34
2018-12-17T04:42:42.359Z,1022.3
2018-12-17T04:43:23.156Z,1022.3
2018-12-17T04:44:04.001Z,1022.3
2018-12-17T04:44:44.906Z,1022.3
2018-12-17T04:45:25.609Z,1022.28
2018-12-17T04:46:07.186Z,1022.28
2018-12-17T04:46:47.184Z,1022.25
2018-12-17T04:47:27.950Z,1022.24
2018-12-17T04:48:08.718Z,1022.25
2018-12-17T04:48:49.476Z,1022.26
2018-12-17T04:49:30.244Z,1022.24
2018-12-17T04:50:11.125Z,1022.29
2018-12-17T04:50:51.908Z,1022.27
2018-12-17T04:51:32.766Z,1022.28
2018-12-17T04:52:13.479Z,1022.29
2018-12-17T04:52:54.200Z,1022.32
2018-12-17T04:53:34.955Z,1022.32
2018-12-17T04:54:15.762Z,1022.33
2018-12-17T04:54:56.580Z,1022.36
2018-12-17T04:55:37.345Z,1022.36
2018-12-17T04:56:18.083Z,1022.35
2018-12-17T04:56:58.932Z,1022.29
2018-12-17T04:57:39.741Z,1022.3
2018-12-17T04:58:20.518Z,1022.28
2018-12-17T04:59:01.295Z,1022.26
2018-12-17T04:59:42.027Z,1022.26
2018-12-17T05:00:22.735Z,1022.25
2018-12-17T05:01:03.514Z,1022.28
2018-12-17T05:01:44.263Z,1022.27
2018-12-17T05:02:25.109Z,1022.29
2018-12-17T05:03:05.818Z,1022.26
2018-12-17T05:03:46.578Z,1022.25
2018-12-17T05:04:27.457Z,1022.27
2018-12-17T05:05:08.167Z,1022.3
2018-12-17T05:05:48.870Z,1022.27
2018-12-17T05:06:29.644Z,1022.24
2018-12-17T05:07:10.405Z,1022.29
2018-12-17T05:07:51.263Z,1022.29
2018-12-17T05:08:31.968Z,1022.29
2018-12-17T05:09:12.818Z,1022.32
2018-12-17T05:09:53.621Z,1022.35
2018-12-17T05:10:34.396Z,1022.36
2018-12-17T05:11:15.195Z,1022.4
2018-12-17T05:11:55.893Z,1022.41
2018-12-17T05:12:36.638Z,1022.41
2018-12-17T05:13:17.458Z,1022.42
2018-12-17T05:13:58.146Z,1022.47
2018-12-17T05:14:38.871Z,1022.44
2018-12-17T05:15:19.667Z,1022.48
2018-12-17T05:16:00.476Z,1022.43
2018-12-17T05:16:41.347Z,1022.43
2018-12-17T05:17:22.228Z,1022.36
2018-12-17T05:18:03.007Z,1022.26
2018-12-17T05:18:43.754Z,1022.24
2018-12-17T05:19:24.486Z,1022.25
2018-12-17T05:20:05.263Z,1022.23
2018-12-17T05:20:46.053Z,1022.23
2018-12-17T05:21:26.757Z,1022.3
2018-12-17T05:22:07.490Z,1022.33
2018-12-17T05:22:48.298Z,1022.35
2018-12-17T05:23:29.027Z,1022.33
2018-12-17T05:24:09.814Z,1022.29
2018-12-17T05:24:50.561Z,1022.3
2018-12-17T05:25:31.306Z,1022.26
2018-12-17T05:26:12.112Z,1022.28
2018-12-17T05:26:52.818Z,1022.29
2018-12-17T05:27:33.510Z,1022.36
2018-12-17T05:28:14.286Z,1022.34
2018-12-17T05:28:55.078Z,1022.38
2018-12-17T05:29:35.857Z,1022.41
2018-12-17T05:30:16.590Z,1022.44
2018-12-17T05:30:57.296Z,1022.37
2018-12-17T05:31:38.099Z,1022.36
2018-12-17T05:32:18.886Z,1022.35
2018-12-17T05:32:59.674Z,1022.35
2018-12-17T05:33:40.364Z,1022.35
2018-12-17T05:34:21.134Z,1022.35
2018-12-17T05:35:01.848Z,1022.37
2018-12-17T05:35:42.680Z,1022.43
2018-12-17T05:36:23.449Z,1022.43
2018-12-17T05:37:04.290Z,1022.5
2018-12-17T05:37:45.073Z,1022.46
2018-12-17T05:38:25.814Z,1022.48
2018-12-17T05:39:06.591Z,1022.49
2018-12-17T05:39:47.360Z,1022.56
2018-12-17T05:40:28.071Z,1022.6
2018-12-17T05:41:08.785Z,1022.6
2018-12-17T05:41:49.570Z,1022.56
2018-12-17T05:42:30.383Z,1022.57
2018-12-17T05:43:11.090Z,1022.6
2018-12-17T05:43:51.813Z,1022.6
2018-12-17T05:44:32.618Z,1022.63
2018-12-17T05:45:13.423Z,1022.66
2018-12-17T05:45:54.199Z,1022.64
2018-12-17T05:46:34.887Z,1022.65
2018-12-17T05:47:15.652Z,1022.65
2018-12-17T05:47:56.450Z,1022.61
2018-12-17T05:48:37.294Z,1022.64
2018-12-17T05:49:17.931Z,1022.63
2018-12-17T05:49:58.652Z,1022.64
2018-12-17T05:50:39.463Z,1022.64
2018-12-17T05:51:20.239Z,1022.64
2018-12-17T05:52:01.075Z,1022.68
2018-12-17T05:52:41.801Z,1022.67
2018-12-17T05:53:22.532Z,1022.68
2018-12-17T05:54:03.288Z,1022.7
2018-12-17T05:54:43.983Z,1022.69
2018-12-17T05:55:24.779Z,1022.73
2018-12-17T05:56:05.489Z,1022.71
2018-12-17T05:56:46.217Z,1022.75
2018-12-17T05:57:27.014Z,1022.72
2018-12-17T05:58:07.800Z,1022.69
2018-12-17T05:58:48.595Z,1022.71
2018-12-17T05:59:29.292Z,1022.74
2018-12-17T06:00:10.012Z,1022.8
2018-12-17T06:00:50.758Z,1022.81
2018-12-17T06:01:31.534Z,1022.82
2018-12-17T06:02:12.351Z,1022.82
2018-12-17T06:02:53.156Z,1022.86
2018-12-17T06:03:33.977Z,1022.89
2018-12-17T06:04:14.769Z,1022.9
2018-12-17T06:04:55.632Z,1022.98
2018-12-17T06:05:36.464Z,1022.99
2018-12-17T06:06:17.186Z,1023.04
2018-12-17T06:06:57.918Z,1023.1
2018-12-17T06:07:38.629Z,1023.14
2018-12-17T06:08:19.470Z,1023.23
2018-12-17T06:09:00.302Z,1023.23
2018-12-17T06:09:41.195Z,1023.2
2018-12-17T06:10:22.015Z,1023.17
2018-12-17T06:11:02.807Z,1023.11
2018-12-17T06:11:43.549Z,1023.05
2018-12-17T06:12:24.331Z,1023.05
2018-12-17T06:13:05.340Z,1023.05
2018-12-17T06:13:46.132Z,1023.02
2018-12-17T06:14:26.873Z,1023.02
2018-12-17T06:15:07.721Z,1023.03
2018-12-17T06:15:48.537Z,1023.09
2018-12-17T06:16:29.263Z,1023.08
2018-12-17T06:17:09.964Z,1023.1
2018-12-17T06:17:50.723Z,1023.06
2018-12-17T06:18:31.480Z,1023.09
2018-12-17T06:19:12.208Z,1023.11
2018-12-17T06:19:52.906Z,1023.1
2018-12-17T06:20:33.634Z,1023.04
2018-12-17T06:21:14.452Z,1023.12
2018-12-17T06:21:55.187Z,1023.04
2018-12-17T06:22:35.927Z,1023.06
2018-12-17T06:23:16.678Z,1023.08
2018-12-17T06:23:57.430Z,1023.08
2018-12-17T06:24:38.365Z,1023.05
2018-12-17T06:25:19.132Z,1023.03
2018-12-17T06:25:59.873Z,1023.08
2018-12-17T06:26:40.809Z,1023.02
2018-12-17T06:27:21.611Z,1023.06
2018-12-17T06:28:02.438Z,1023.05
2018-12-17T06:28:43.293Z,1023.04
2018-12-17T06:29:24.100Z,1023.05
2018-12-17T06:30:04.754Z,1023.12
2018-12-17T06:30:45.499Z,1023.08
2018-12-17T06:31:26.361Z,1023.13
2018-12-17T06:32:07.071Z,1023.14
2018-12-17T06:32:47.827Z,1023.18
2018-12-17T06:33:28.590Z,1023.17
2018-12-17T06:35:44.163Z,1023.22
2018-12-17T06:36:24.909Z,1023.23
2018-12-17T06:37:05.665Z,1023.26
2018-12-17T06:37:46.388Z,1023.29
2018-12-17T06:38:27.189Z,1023.29
2018-12-17T06:39:07.988Z,1023.34
2018-12-17T06:39:48.703Z,1023.37
2018-12-17T06:40:29.449Z,1023.4
2018-12-17T06:41:10.195Z,1023.42
2018-12-17T06:41:50.935Z,1023.45
2018-12-17T06:42:31.752Z,1023.48
2018-12-17T06:43:12.530Z,1023.54
2018-12-17T06:43:53.328Z,1023.62
2018-12-17T06:44:34.153Z,1023.62
2018-12-17T06:45:14.901Z,1023.68
2018-12-17T06:45:55.707Z,1023.68
2018-12-17T06:46:36.480Z,1023.7
2018-12-17T06:47:17.205Z,1023.75
2018-12-17T06:47:58.785Z,1023.75
2018-12-17T06:48:38.611Z,1023.74
2018-12-17T06:49:19.425Z,1023.72
2018-12-17T06:50:00.243Z,1023.69
2018-12-17T06:50:41.075Z,1023.77
2018-12-17T06:51:21.843Z,1023.77
2018-12-17T06:52:02.558Z,1023.78
2018-12-17T06:52:43.312Z,1023.82
2018-12-17T06:53:24.103Z,1023.82
2018-12-17T06:54:04.893Z,1023.87
2018-12-17T06:54:45.625Z,1023.88
2018-12-17T06:55:26.398Z,1023.87
2018-12-17T06:56:07.181Z,1023.89
2018-12-17T06:56:48.221Z,1023.85
2018-12-17T06:57:29.075Z,1023.93
2018-12-17T06:58:09.709Z,1023.94
2018-12-17T06:58:50.516Z,1023.99
2018-12-17T06:59:31.316Z,1024
2018-12-17T07:00:12.038Z,1024.03
2018-12-17T07:00:52.776Z,1024.07
2018-12-17T07:01:33.529Z,1024.1
2018-12-17T07:02:14.421Z,1024.11
2018-12-17T07:02:55.268Z,1024.1
2018-12-17T07:03:36.022Z,1024.09
2018-12-17T07:04:16.787Z,1024.1
2018-12-17T07:04:57.590Z,1024.12
2018-12-17T07:05:38.451Z,1024.13
2018-12-17T07:06:19.213Z,1024.09
2018-12-17T07:06:59.952Z,1024.15
2018-12-17T07:07:40.697Z,1024.15
2018-12-17T07:08:21.489Z,1024.18
2018-12-17T07:09:02.255Z,1024.16
2018-12-17T07:09:43.075Z,1024.14
2018-12-17T07:10:23.843Z,1024.13
2018-12-17T07:11:04.556Z,1024.11
2018-12-17T07:11:45.328Z,1024.14
2018-12-17T07:12:26.074Z,1024.21
2018-12-17T07:13:06.811Z,1024.22
2018-12-17T07:13:47.518Z,1024.23
2018-12-17T07:14:28.282Z,1024.24
2018-12-17T07:15:09.131Z,1024.29
2018-12-17T07:15:49.922Z,1024.29
2018-12-17T07:16:30.741Z,1024.27
2018-12-17T07:17:11.564Z,1024.3
2018-12-17T07:17:52.250Z,1024.38
2018-12-17T07:18:32.981Z,1024.35
2018-12-17T07:19:13.745Z,1024.42
2018-12-17T07:19:54.505Z,1024.43
2018-12-17T07:20:35.312Z,1024.44
2018-12-17T07:21:16.030Z,1024.43
2018-12-17T07:21:56.789Z,1024.42
2018-12-17T07:22:37.599Z,1024.43
2018-12-17T07:23:18.381Z,1024.42
2018-12-17T07:23:59.098Z,1024.47
2018-12-17T07:24:39.884Z,1024.45
2018-12-17T07:25:20.683Z,1024.43
2018-12-17T07:26:01.443Z,1024.45
2018-12-17T07:26:42.249Z,1024.45
2018-12-17T07:27:23.017Z,1024.45
2018-12-17T07:28:03.843Z,1024.48
2018-12-17T07:28:44.574Z,1024.51
2018-12-17T07:29:25.343Z,1024.51
2018-12-17T07:30:06.140Z,1024.55
2018-12-17T07:30:46.857Z,1024.54
2018-12-17T07:31:27.612Z,1024.57
2018-12-17T07:32:08.302Z,1024.62
2018-12-17T07:32:49.095Z,1024.65
2018-12-17T07:33:29.867Z,1024.63
2018-12-17T07:34:10.618Z,1024.63
2018-12-17T07:34:51.359Z,1024.63
2018-12-17T07:35:32.207Z,1024.64
2018-12-17T07:36:13.049Z,1024.64
2018-12-17T07:36:53.859Z,1024.69
2018-12-17T07:37:34.606Z,1024.69
2018-12-17T07:38:15.384Z,1024.66
2018-12-17T07:38:56.195Z,1024.67
2018-12-17T07:39:36.925Z,1024.7
2018-12-17T07:40:17.623Z,1024.75
2018-12-17T07:40:58.332Z,1024.77
2018-12-17T07:41:39.083Z,1024.75
2018-12-17T07:42:19.905Z,1024.77
2018-12-17T07:43:00.725Z,1024.75
2018-12-17T07:43:41.414Z,1024.76
2018-12-17T07:44:22.167Z,1024.75
2018-12-17T07:45:02.858Z,1024.76
2018-12-17T07:45:43.646Z,1024.76
2018-12-17T07:46:24.492Z,1024.8
2018-12-17T07:47:05.226Z,1024.8
2018-12-17T07:47:45.974Z,1024.84
2018-12-17T07:48:26.832Z,1024.84
2018-12-17T07:49:07.621Z,1024.85
2018-12-17T07:49:48.424Z,1024.89
2018-12-17T07:50:29.114Z,1024.91
2018-12-17T07:51:09.889Z,1024.93
2018-12-17T07:51:50.667Z,1024.91
2018-12-17T07:52:31.444Z,1024.95
2018-12-17T07:53:12.321Z,1024.94
2018-12-17T07:53:53.140Z,1024.94
2018-12-17T07:54:33.922Z,1025
2018-12-17T07:55:14.697Z,1024.96
2018-12-17T07:55:55.510Z,1025.01
2018-12-17T07:56:36.238Z,1025.03
2018-12-17T07:57:16.952Z,1025.01
2018-12-17T07:57:57.684Z,1025.02
2018-12-17T07:58:38.479Z,1025.03
2018-12-17T07:59:19.333Z,1025.07
2018-12-17T08:00:00.121Z,1025.06
2018-12-17T08:00:40.917Z,1025.09
2018-12-17T08:01:21.675Z,1025.14
2018-12-17T08:02:02.435Z,1025.15
2018-12-17T08:02:43.182Z,1025.21
2018-12-17T08:03:24.002Z,1025.22
2018-12-17T08:04:04.795Z,1025.24
2018-12-17T08:04:45.607Z,1025.24
2018-12-17T08:05:26.410Z,1025.31
2018-12-17T08:06:07.229Z,1025.29
2018-12-17T08:06:48.052Z,1025.33
2018-12-17T08:07:28.933Z,1025.34
2018-12-17T08:08:09.663Z,1025.31
2018-12-17T08:08:50.437Z,1025.35
2018-12-17T08:09:31.217Z,1025.34
2018-12-17T08:10:12.004Z,1025.38
2018-12-17T08:10:52.797Z,1025.41
2018-12-17T08:11:33.536Z,1025.4
2018-12-17T08:12:14.437Z,1025.4
2018-12-17T08:12:55.182Z,1025.41
2018-12-17T08:13:35.989Z,1025.41
2018-12-17T08:14:16.817Z,1025.43
2018-12-17T08:14:57.673Z,1025.42
2018-12-17T08:15:38.519Z,1025.44
2018-12-17T08:16:19.254Z,1025.41